Time;durP1;ratioP1;P1;durP2;ratioP2;P2;SDS_P1;SDS_P2;PMS_P1;PMS_P2;Temp;Humidity;BMP_temperature;BMP_pressure;BME280_temperature;BME280_humidity;BME280_pressure;Samples;Min_cycle;Max_cycle;Signal;HPM_P1;HPM_P2
2022/05/13 00:01:17;;;;;;;5.28;1.45;;;13.40;65.10;;;;;;5076919;28;20648;-86
2022/05/13 00:03:43;;;;;;;6.00;1.85;;;13.50;65.10;;;;;;5072666;28;20046;-86
2022/05/13 00:06:09;;;;;;;4.95;1.40;;;13.60;64.80;;;;;;5074041;28;20464;-86
2022/05/13 00:08:34;;;;;;;5.65;1.60;;;13.50;64.80;;;;;;5074211;28;20028;-87
2022/05/13 00:11:03;;;;;;;5.07;1.40;;;13.50;65.00;;;;;;5073970;28;20032;-85
2022/05/13 00:13:29;;;;;;;9.23;1.55;;;13.60;65.00;;;;;;5073484;28;20040;-86
2022/05/13 00:15:55;;;;;;;6.55;1.88;;;13.50;65.20;;;;;;5073620;28;20522;-86
2022/05/13 00:18:21;;;;;;;5.65;1.55;;;13.50;64.60;;;;;;5073485;28;20047;-85
2022/05/13 00:20:47;;;;;;;7.07;1.90;;;13.60;64.80;;;;;;5073642;28;20056;-85
2022/05/13 00:23:13;;;;;;;4.63;1.50;;;13.60;64.80;;;;;;5078753;28;20079;-86
2022/05/13 00:25:39;;;;;;;4.40;1.63;;;13.60;65.10;;;;;;5074010;28;20398;-85
2022/05/13 00:28:06;;;;;;;5.55;1.88;;;13.60;65.20;;;;;;5073589;28;20020;-85
2022/05/13 00:30:37;;;;;;;12.65;2.38;;;13.40;65.30;;;;;;5073892;28;20036;-85
2022/05/13 00:33:02;;;;;;;;;;;13.40;65.70;;;;;;5074223;28;20575;-86
2022/05/13 00:35:29;;;;;;;5.20;1.80;;;13.30;64.70;;;;;;5073239;28;19909;-86
2022/05/13 00:37:55;;;;;;;8.18;1.40;;;13.30;64.90;;;;;;5081345;28;20051;-86
2022/05/13 00:40:22;;;;;;;5.60;1.63;;;13.30;64.70;;;;;;5093848;28;20421;-86
2022/05/13 00:42:49;;;;;;;5.03;1.98;;;13.30;64.60;;;;;;5093582;28;20048;-85
2022/05/13 00:45:15;;;;;;;12.27;1.95;;;13.20;64.80;;;;;;5093685;28;20016;-85
2022/05/13 00:47:42;;;;;;;6.03;1.60;;;13.30;64.90;;;;;;5077676;28;20029;-85
2022/05/13 00:50:10;;;;;;;5.45;2.03;;;13.10;65.00;;;;;;5073450;28;20142;-85
2022/05/13 00:52:37;;;;;;;7.57;1.67;;;13.00;65.70;;;;;;5073174;28;20033;-85
2022/05/13 00:55:08;;;;;;;5.18;1.73;;;12.90;65.60;;;;;;5072907;28;20043;-85
2022/05/13 00:57:35;;;;;;;6.45;1.73;;;13.00;65.50;;;;;;5073498;28;20036;-86
2022/05/13 01:00:04;;;;;;;9.00;1.88;;;13.00;65.40;;;;;;5073118;28;20080;-86
2022/05/13 01:02:31;;;;;;;4.73;1.20;;;13.00;65.30;;;;;;5111508;28;20103;-86
2022/05/13 01:04:57;;;;;;;4.20;1.58;;;13.00;65.20;;;;;;5113822;28;20030;-85
2022/05/13 01:07:23;;;;;;;3.60;2.45;;;13.10;65.00;;;;;;5078445;28;20025;-85
2022/05/13 01:09:57;;;;;;;10.35;2.00;;;13.10;65.40;;;;;;5073158;28;20028;-85
2022/05/13 01:12:31;;;;;;;5.88;2.17;;;13.00;65.20;;;;;;5071787;28;20020;-85
2022/05/13 01:15:01;;;;;;;4.75;1.55;;;13.00;65.30;;;;;;5071310;28;20032;-86
2022/05/13 01:20:21;;;;;;;3.55;1.50;;;12.90;66.00;;;;;;5073073;28;20590;-85
2022/05/13 01:22:53;;;;;;;4.30;1.60;;;12.80;65.90;;;;;;5081114;28;20032;-85
2022/05/13 01:25:24;;;;;;;4.82;1.75;;;12.80;66.40;;;;;;5084136;28;20039;-85
2022/05/13 01:27:51;;;;;;;8.88;1.80;;;12.70;66.80;;;;;;5091855;28;20024;-85
2022/05/13 01:30:25;;;;;;;9.98;2.05;;;12.70;66.90;;;;;;5081468;28;20028;-85
2022/05/13 01:32:51;;;;;;;4.47;1.90;;;12.70;67.10;;;;;;5072779;28;20036;-86
2022/05/13 01:35:17;;;;;;;7.68;1.52;;;12.60;67.30;;;;;;5086622;28;20032;-86
2022/05/13 01:37:43;;;;;;;8.57;1.92;;;12.50;67.00;;;;;;5093010;28;20028;-86
2022/05/13 01:40:09;;;;;;;5.68;1.67;;;12.40;67.40;;;;;;5095146;28;20438;-86
2022/05/13 01:42:35;;;;;;;2.45;1.45;;;12.40;67.10;;;;;;5085053;28;20024;-86
2022/05/13 01:45:02;;;;;;;5.80;1.67;;;12.40;67.30;;;;;;5076613;28;20028;-86
2022/05/13 01:47:28;;;;;;;8.13;2.05;;;12.50;66.70;;;;;;5076778;28;20047;-86
2022/05/13 01:49:55;;;;;;;6.68;1.90;;;12.50;66.80;;;;;;5076496;28;20530;-85
2022/05/13 01:52:21;;;;;;;3.10;1.67;;;12.30;67.20;;;;;;5076990;28;20027;-85
2022/05/13 01:54:47;;;;;;;7.80;1.98;;;12.40;67.50;;;;;;5076055;28;20029;-85
2022/05/13 01:57:12;;;;;;;2.42;1.58;;;12.40;67.10;;;;;;5076438;28;20696;-85
2022/05/13 01:59:38;;;;;;;5.72;1.85;;;12.50;66.80;;;;;;5076403;28;20031;-85
2022/05/13 02:02:04;;;;;;;3.72;1.63;;;12.40;66.50;;;;;;5110734;28;20028;-86
2022/05/13 02:04:30;;;;;;;8.60;2.20;;;12.30;67.20;;;;;;5116964;28;20030;-86
2022/05/13 02:06:55;;;;;;;3.95;1.63;;;12.20;67.50;;;;;;5099299;28;20025;-85
2022/05/13 02:09:21;;;;;;;5.47;1.35;;;12.20;67.40;;;;;;5096454;28;20036;-85
2022/05/13 02:11:47;;;;;;;9.85;1.80;;;12.20;67.10;;;;;;5095035;28;20019;-85
2022/05/13 02:14:17;;;;;;;4.85;2.13;;;12.20;67.50;;;;;;5077294;28;20536;-85
2022/05/13 02:16:43;;;;;;;6.55;1.75;;;12.20;67.60;;;;;;5076353;28;20032;-85
2022/05/13 02:19:09;;;;;;;4.95;1.92;;;12.20;67.80;;;;;;5076173;28;20047;-84
2022/05/13 02:21:36;;;;;;;6.03;1.80;;;12.10;67.60;;;;;;5076140;28;20028;-85
2022/05/13 02:24:02;;;;;;;6.93;2.20;;;12.10;67.30;;;;;;5094538;28;20077;-86
2022/05/13 02:26:28;;;;;;;4.88;2.08;;;12.20;67.30;;;;;;5096300;28;20032;-85
2022/05/13 02:28:54;;;;;;;3.33;1.67;;;12.20;67.20;;;;;;5092394;28;20031;-85
2022/05/13 02:31:20;;;;;;;5.63;2.22;;;12.20;67.10;;;;;;5075262;28;20021;-85
2022/05/13 02:33:46;;;;;;;5.40;1.77;;;12.10;67.30;;;;;;5074433;28;20816;-85
2022/05/13 02:36:13;;;;;;;9.95;2.15;;;12.00;68.00;;;;;;5079757;28;20020;-85
2022/05/13 02:38:39;;;;;;;4.47;1.60;;;12.10;68.00;;;;;;5096068;28;20036;-85
2022/05/13 02:41:11;;;;;;;4.68;1.65;;;12.10;67.70;;;;;;5095885;28;20077;-85
2022/05/13 02:43:38;;;;;;;8.82;2.10;;;12.20;67.90;;;;;;5087751;28;20033;-85
2022/05/13 02:46:04;;;;;;;3.90;1.80;;;12.20;67.50;;;;;;5075498;28;20021;-85
2022/05/13 02:48:30;;;;;;;4.35;2.05;;;12.00;68.00;;;;;;5075126;28;20024;-84
2022/05/13 02:50:56;;;;;;;5.57;2.30;;;12.00;68.10;;;;;;5075407;28;20512;-85
2022/05/13 02:53:22;;;;;;;3.53;1.65;;;12.00;68.20;;;;;;5074196;28;20136;-85
2022/05/13 02:55:48;;;;;;;5.43;2.13;;;12.00;67.30;;;;;;5074291;28;20398;-85
2022/05/13 02:58:14;;;;;;;4.95;1.95;;;11.90;67.20;;;;;;5086683;28;20112;-85
2022/05/13 03:00:40;;;;;;;7.72;2.17;;;11.90;67.40;;;;;;5099526;28;20104;-85
2022/05/13 03:03:06;;;;;;;8.77;2.63;;;11.80;67.80;;;;;;5115719;28;20028;-85
2022/05/13 03:05:33;;;;;;;5.97;1.92;;;11.90;67.70;;;;;;5115415;28;20547;-85
2022/05/13 03:08:01;;;;;;;8.68;2.13;;;11.90;67.80;;;;;;5080332;28;20078;-85
2022/05/13 03:10:31;;;;;;;3.85;1.20;;;11.80;68.50;;;;;;5075228;28;20023;-85
2022/05/13 03:12:57;;;;;;;;;;;11.80;68.60;;;;;;5075715;28;20028;-85
2022/05/13 03:15:24;;;;;;;6.35;2.10;;;11.80;68.90;;;;;;5075053;28;20090;-85
2022/05/13 03:17:50;;;;;;;5.03;1.77;;;11.70;69.30;;;;;;5074956;28;20452;-87
2022/05/13 03:20:17;;;;;;;7.28;2.22;;;11.50;69.30;;;;;;5074913;28;20061;-84
2022/05/13 03:22:47;;;;;;;8.60;2.13;;;11.50;70.00;;;;;;5082565;28;20111;-84
2022/05/13 03:25:14;;;;;;;6.07;2.05;;;11.60;69.70;;;;;;5088976;28;20045;-85
2022/05/13 03:27:41;;;;;;;5.07;2.58;;;11.60;69.30;;;;;;5074713;28;20024;-85
2022/05/13 03:30:08;;;;;;;4.35;1.83;;;11.60;68.80;;;;;;5074869;28;20080;-85
2022/05/13 03:32:34;;;;;;;10.68;2.35;;;11.60;68.80;;;;;;5076393;28;20058;-85
2022/05/13 03:35:00;;;;;;;4.80;2.13;;;11.60;68.20;;;;;;5095689;28;20538;-85
2022/05/13 03:37:26;;;;;;;5.63;1.88;;;11.60;69.10;;;;;;5084959;28;20029;-85
2022/05/13 03:39:51;;;;;;;9.60;2.45;;;11.60;68.40;;;;;;5074642;28;20021;-86
2022/05/13 03:42:19;;;;;;;4.53;2.67;;;11.50;68.70;;;;;;5074488;28;20054;-86
2022/05/13 03:44:45;;;;;;;4.72;2.10;;;11.40;69.50;;;;;;5073851;28;20398;-86
2022/05/13 03:47:10;;;;;;;6.85;2.33;;;11.50;69.00;;;;;;5079682;28;20020;-86
2022/05/13 03:49:36;;;;;;;7.90;2.85;;;11.50;69.20;;;;;;5079562;28;20107;-86
2022/05/13 03:52:02;;;;;;;7.60;2.20;;;11.60;68.50;;;;;;5074288;28;20070;-86
2022/05/13 03:54:27;;;;;;;6.95;2.40;;;11.50;69.00;;;;;;5072812;28;20124;-86
2022/05/13 03:56:53;;;;;;;7.95;2.08;;;11.50;69.00;;;;;;5072930;28;20031;-85
2022/05/13 03:59:19;;;;;;;3.17;1.77;;;11.40;69.40;;;;;;5074132;28;20130;-86
2022/05/13 04:01:44;;;;;;;5.03;1.90;;;11.30;69.80;;;;;;5099078;28;20035;-85
2022/05/13 04:04:10;;;;;;;6.57;2.20;;;11.20;70.30;;;;;;5114274;28;20080;-85
2022/05/13 04:09:20;;;;;;;6.97;1.85;;;11.20;70.20;;;;;;5075403;28;20032;-85
2022/05/13 04:16:04;;;;;;;3.67;2.15;;;11.20;69.70;;;;;;5073917;28;20032;-85
2022/05/13 04:17:16;;;;;;;16.80;2.92;;;11.30;69.70;;;;;;5074147;28;20044;-85
2022/05/13 04:19:42;;;;;;;6.78;2.42;;;11.40;69.70;;;;;;5073493;28;20116;-85
2022/05/13 04:22:09;;;;;;;4.63;2.33;;;11.50;69.30;;;;;;5076362;28;20059;-86
2022/05/13 04:24:35;;;;;;;4.72;2.25;;;11.50;68.90;;;;;;5093795;28;20095;-85
2022/05/13 04:27:00;;;;;;;3.80;2.00;;;11.60;69.40;;;;;;5072462;28;20617;-85
2022/05/13 04:29:26;;;;;;;5.18;1.88;;;11.50;69.60;;;;;;5072251;28;20024;-85
2022/05/13 04:31:52;;;;;;;5.50;2.00;;;11.50;69.00;;;;;;5073857;28;20100;-85
2022/05/13 04:34:17;;;;;;;8.48;1.98;;;11.50;68.30;;;;;;5089905;28;20045;-85
2022/05/13 04:36:43;;;;;;;3.28;1.50;;;11.40;68.10;;;;;;5093664;28;20103;-85
2022/05/13 04:39:09;;;;;;;11.63;2.50;;;11.50;68.00;;;;;;5093860;28;20085;-85
2022/05/13 04:44:19;;;;;;;6.70;2.00;;;11.30;68.10;;;;;;5087342;28;20105;-85
2022/05/13 04:46:45;;;;;;;5.07;2.08;;;11.30;68.10;;;;;;5072098;28;20021;-79
2022/05/13 04:49:11;;;;;;;4.15;2.15;;;11.30;67.70;;;;;;5073479;28;20570;-78
2022/05/13 04:51:38;;;;;;;6.38;1.77;;;11.30;67.90;;;;;;5073276;28;20021;-79
2022/05/13 04:54:05;;;;;;;3.50;1.67;;;11.20;67.80;;;;;;5073349;28;20487;-80
2022/05/13 04:56:31;;;;;;;5.00;2.05;;;11.30;67.60;;;;;;5075984;28;20028;-84
2022/05/13 04:58:58;;;;;;;6.57;2.10;;;11.20;68.00;;;;;;5072533;28;20016;-79
2022/05/13 05:01:25;;;;;;;3.85;1.67;;;11.20;68.00;;;;;;5083126;28;20577;-78
2022/05/13 05:03:51;;;;;;;2.75;1.42;;;11.10;68.40;;;;;;5078380;28;20390;-78
2022/05/13 05:06:19;;;;;;;4.95;2.28;;;11.00;68.40;;;;;;5077457;28;20525;-77
2022/05/13 05:08:45;;;;;;;4.85;2.75;;;11.00;68.60;;;;;;5091750;28;20382;-77
2022/05/13 05:11:13;;;;;;;4.35;2.50;;;11.00;69.10;;;;;;5089115;28;20032;-80
2022/05/13 05:13:42;;;;;;;6.40;2.03;;;11.00;69.30;;;;;;5075287;28;20477;-82
2022/05/13 05:16:08;;;;;;;9.68;2.90;;;11.00;69.20;;;;;;5084211;28;20127;-79
2022/05/13 05:18:35;;;;;;;4.63;2.08;;;11.10;69.40;;;;;;5090716;28;20046;-81
2022/05/13 05:21:03;;;;;;;4.93;2.70;;;11.10;69.60;;;;;;5085576;28;20126;-81
2022/05/13 05:23:30;;;;;;;8.45;2.10;;;11.10;69.40;;;;;;5081785;28;20074;-84
2022/05/13 05:25:56;;;;;;;9.07;2.50;;;11.20;69.20;;;;;;5084153;28;20111;-83
2022/05/13 05:28:23;;;;;;;4.40;2.55;;;11.20;69.30;;;;;;5079645;28;20077;-80
2022/05/13 05:30:48;;;;;;;8.98;2.85;;;11.20;69.60;;;;;;5077624;28;20079;-82
2022/05/13 05:33:15;;;;;;;4.15;2.35;;;11.20;69.60;;;;;;5082160;28;20032;-82
2022/05/13 05:35:41;;;;;;;5.07;2.67;;;11.20;70.20;;;;;;5094912;28;20035;-83
2022/05/13 05:38:07;;;;;;;4.95;2.25;;;11.20;70.10;;;;;;5082407;28;20501;-82
2022/05/13 05:40:37;;;;;;;6.65;2.70;;;11.10;70.70;;;;;;5076565;28;20036;-83
2022/05/13 05:43:09;;;;;;;7.88;3.25;;;11.20;70.70;;;;;;5076503;28;20028;-83
2022/05/13 05:45:37;;;;;;;8.30;2.70;;;11.20;71.30;;;;;;5076432;28;20391;-83
2022/05/13 05:48:04;;;;;;;4.72;2.88;;;11.20;71.20;;;;;;5075873;28;20666;-82
2022/05/13 05:50:30;;;;;;;3.40;2.47;;;11.30;71.40;;;;;;5076124;28;20084;-82
2022/05/13 05:52:56;;;;;;;8.18;2.40;;;11.30;71.70;;;;;;5075829;28;20459;-82
2022/05/13 05:58:10;;;;;;;9.60;2.65;;;11.40;72.00;;;;;;5081406;28;20043;-79
2022/05/13 06:00:38;;;;;;;10.68;2.97;;;11.50;71.70;;;;;;5081249;28;20031;-81
2022/05/13 06:03:04;;;;;;;7.15;3.65;;;11.50;71.60;;;;;;5116870;28;20461;-83
2022/05/13 06:05:30;;;;;;;6.07;3.00;;;11.60;70.80;;;;;;5097589;28;20023;-82
2022/05/13 06:07:58;;;;;;;6.28;2.78;;;11.60;72.10;;;;;;5084529;28;20020;-82
2022/05/13 06:10:25;;;;;;;4.50;3.10;;;11.80;71.70;;;;;;5089601;28;20019;-83
2022/05/13 06:12:51;;;;;;;3.97;2.83;;;12.10;70.70;;;;;;5094218;28;20102;-84
2022/05/13 06:15:18;;;;;;;7.13;3.00;;;12.30;71.20;;;;;;5092624;28;20020;-83
2022/05/13 06:17:50;;;;;;;7.80;3.22;;;12.60;71.20;;;;;;5116343;27;20043;-82
2022/05/13 06:20:18;;;;;;;5.10;2.65;;;12.70;71.30;;;;;;5102771;28;20100;-82
2022/05/13 06:22:43;;;;;;;10.27;3.63;;;13.00;70.30;;;;;;5093319;28;20059;-82
2022/05/13 06:25:12;;;;;;;7.00;2.70;;;13.10;69.20;;;;;;5095001;28;20059;-83
2022/05/13 06:27:38;;;;;;;7.32;2.63;;;13.20;69.20;;;;;;5094589;28;20032;-83
2022/05/13 06:30:10;;;;;;;10.63;3.03;;;13.40;68.80;;;;;;5083909;28;20024;-82
2022/05/13 06:32:35;;;;;;;10.20;2.88;;;13.60;69.80;;;;;;5075649;28;20023;-86
2022/05/13 06:35:03;;;;;;;3.60;2.60;;;13.70;69.10;;;;;;5075626;28;20020;-80
2022/05/13 06:37:28;;;;;;;7.40;2.90;;;13.80;69.80;;;;;;5084974;28;20054;-79
2022/05/13 06:39:54;;;;;;;7.45;3.15;;;14.00;69.40;;;;;;5083155;28;20119;-79
2022/05/13 06:42:20;;;;;;;7.93;2.60;;;14.10;70.10;;;;;;5081571;28;20060;-81
2022/05/13 06:44:45;;;;;;;10.45;2.75;;;14.20;68.20;;;;;;5084406;28;20020;-80
2022/05/13 06:47:11;;;;;;;6.10;2.83;;;14.10;69.00;;;;;;5084062;28;20017;-78
2022/05/13 06:49:37;;;;;;;8.57;2.22;;;14.00;68.90;;;;;;5085175;28;20020;-86
2022/05/13 06:52:03;;;;;;;9.25;2.58;;;13.80;69.20;;;;;;5084416;28;20196;-82
2022/05/13 06:54:29;;;;;;;5.90;2.58;;;13.70;69.70;;;;;;5083277;28;20059;-82
2022/05/13 06:56:55;;;;;;;10.23;3.38;;;13.60;70.80;;;;;;5082987;28;20028;-83
2022/05/13 06:59:21;;;;;;;7.10;2.83;;;13.50;71.20;;;;;;5084327;28;20039;-83
2022/05/13 07:01:47;;;;;;;6.85;2.80;;;13.60;70.60;;;;;;5083171;28;20051;-83
2022/05/13 07:04:13;;;;;;;4.60;2.53;;;13.60;70.30;;;;;;5081483;28;20116;-82
2022/05/13 07:06:39;;;;;;;3.80;2.33;;;13.70;70.10;;;;;;5090645;28;20028;-82
2022/05/13 07:09:05;;;;;;;5.68;2.70;;;13.70;70.70;;;;;;5093795;28;20016;-83
2022/05/13 07:11:32;;;;;;;3.50;2.60;;;13.90;70.80;;;;;;5084473;28;20538;-83
2022/05/13 07:13:57;;;;;;;7.63;2.53;;;14.20;70.70;;;;;;5082794;28;20057;-83
2022/05/13 07:16:23;;;;;;;7.22;2.05;;;15.00;68.60;;;;;;5087882;28;20080;-84
2022/05/13 07:18:49;;;;;;;8.98;2.42;;;16.70;64.00;;;;;;5090001;28;20024;-83
2022/05/13 07:21:15;;;;;;;4.70;1.92;;;19.40;57.10;;;;;;5083221;28;20119;-85
2022/05/13 07:23:41;;;;;;;4.25;1.60;;;22.80;48.40;;;;;;5075279;28;20029;-84
2022/05/13 07:26:07;;;;;;;6.07;1.27;;;25.60;41.70;;;;;;5073096;28;20570;-83
2022/05/13 07:28:34;;;;;;;6.15;1.05;;;27.40;37.30;;;;;;5074012;28;20024;-84
2022/05/13 07:31:00;;;;;;;4.80;1.10;;;29.00;34.80;;;;;;5074204;28;20108;-83
2022/05/13 07:33:29;;;;;;;3.05;0.80;;;27.80;35.60;;;;;;5081334;28;20603;-83
2022/05/13 07:35:55;;;;;;;3.80;1.23;;;29.20;32.70;;;;;;5094879;28;20027;-84
2022/05/13 07:38:21;;;;;;;4.03;1.00;;;30.60;30.50;;;;;;5090525;28;20024;-85
2022/05/13 07:43:31;;;;;;;5.22;1.20;;;32.00;28.60;;;;;;5071133;28;20039;-85
2022/05/13 07:45:57;;;;;;;6.80;1.05;;;33.20;26.90;;;;;;5070757;28;20116;-85
2022/05/13 07:48:23;;;;;;;5.32;1.35;;;33.70;26.50;;;;;;5071184;28;20029;-84
2022/05/13 07:50:48;;;;;;;5.20;1.20;;;33.30;27.40;;;;;;5071172;28;20451;-84
2022/05/13 07:53:14;;;;;;;3.95;1.05;;;34.20;26.60;;;;;;5071595;28;20042;-84
2022/05/13 07:55:40;;;;;;;4.22;1.10;;;35.00;25.30;;;;;;5073783;28;20615;-85
2022/05/13 07:58:05;;;;;;;6.82;1.35;;;35.60;24.00;;;;;;5074020;28;20032;-85
2022/05/13 08:00:36;;;;;;;3.67;0.85;;;36.00;24.00;;;;;;5077037;28;20533;-85
2022/05/13 08:03:14;;;;;;;4.40;1.00;;;34.90;24.90;;;;;;5114203;28;20035;-84
2022/05/13 08:05:43;;;;;;;3.77;1.10;;;31.60;28.10;;;;;;5114358;28;20024;-85
2022/05/13 08:08:13;;;;;;;5.00;1.10;;;28.70;31.50;;;;;;5105523;28;20275;-84
2022/05/13 08:10:46;;;;;;;4.65;1.40;;;27.30;34.40;;;;;;5074548;28;20020;-86
2022/05/13 08:13:11;;;;;;;3.17;0.88;;;30.00;31.60;;;;;;5093906;28;20021;-85
2022/05/13 08:15:38;;;;;;;3.67;1.02;;;29.30;31.00;;;;;;5074256;28;20033;-81
2022/05/13 08:18:04;;;;;;;3.67;1.23;;;27.20;34.20;;;;;;5081709;28;20028;-82
2022/05/13 08:20:31;;;;;;;3.95;0.90;;;25.50;36.40;;;;;;5092655;28;20443;-82
2022/05/13 08:22:57;;;;;;;5.78;1.10;;;24.10;38.80;;;;;;5092220;28;20035;-82
2022/05/13 08:25:23;;;;;;;6.38;1.10;;;23.10;41.60;;;;;;5093703;28;20112;-83
2022/05/13 08:27:50;;;;;;;4.95;1.15;;;24.40;41.10;;;;;;5093564;28;20125;-84
2022/05/13 08:30:17;;;;;;;3.90;0.73;;;27.50;35.80;;;;;;5092172;28;20097;-84
2022/05/13 08:32:43;;;;;;;3.58;0.77;;;30.00;31.70;;;;;;5079959;28;20589;-85
2022/05/13 08:35:10;;;;;;;4.93;0.90;;;31.80;29.60;;;;;;5073417;28;20021;-84
2022/05/13 08:37:45;;;;;;;3.85;0.85;;;33.30;26.60;;;;;;5072745;28;20027;-85
2022/05/13 08:40:31;;;;;;;3.83;0.82;;;34.20;25.30;;;;;;5078329;28;20028;-85
2022/05/13 08:42:58;;;;;;;5.25;1.05;;;34.70;24.00;;;;;;5051341;28;20474;-85
2022/05/13 08:45:24;;;;;;;4.82;0.90;;;34.90;24.30;;;;;;5073784;28;20056;-85
2022/05/13 08:47:56;;;;;;;5.63;0.93;;;35.50;23.90;;;;;;5073163;28;20039;-85
2022/05/13 08:50:30;;;;;;;2.88;1.17;;;36.00;23.50;;;;;;5085441;28;20080;-85
2022/05/13 08:53:27;;;;;;;5.65;0.93;;;35.80;23.80;;;;;;5093105;28;20035;-86
2022/05/13 08:56:01;;;;;;;4.65;0.93;;;36.10;23.60;;;;;;5089957;28;20028;-85
2022/05/13 08:58:37;;;;;;;2.55;0.82;;;35.30;23.30;;;;;;5072890;28;20035;-86
2022/05/13 09:01:11;;;;;;;4.80;1.17;;;35.60;23.00;;;;;;5084823;28;20039;-85
2022/05/13 09:03:54;;;;;;;4.88;1.42;;;35.80;22.80;;;;;;5113146;28;20956;-85
2022/05/13 09:06:37;;;;;;;3.97;0.80;;;35.90;22.30;;;;;;5104904;28;20534;-86
2022/05/13 09:09:05;;;;;;;3.30;1.00;;;36.10;22.30;;;;;;5071436;28;20063;-85
2022/05/13 09:11:48;;;;;;;5.07;0.90;;;36.20;22.50;;;;;;5080924;28;20024;-86
2022/05/13 09:14:33;;;;;;;5.15;0.90;;;35.90;22.20;;;;;;5091538;28;20043;-86
2022/05/13 09:17:13;;;;;;;2.95;0.85;;;35.00;22.20;;;;;;5077930;28;20024;-85
2022/05/13 09:19:41;;;;;;;3.67;1.23;;;35.00;23.90;;;;;;5072306;28;20048;-85
2022/05/13 09:22:11;;;;;;;4.07;1.02;;;35.80;22.90;;;;;;5075191;28;20020;-85
2022/05/13 09:24:37;;;;;;;3.08;0.60;;;36.30;22.60;;;;;;5093052;28;20051;-85
2022/05/13 09:27:03;;;;;;;2.85;0.85;;;36.30;21.90;;;;;;5086968;28;20040;-85
2022/05/13 09:29:41;;;;;;;3.83;1.02;;;36.40;20.40;;;;;;5072275;28;20137;-84
2022/05/13 09:32:14;;;;;;;4.32;0.63;;;36.80;20.90;;;;;;5075571;28;20100;-85
2022/05/13 09:35:07;;;;;;;1.95;0.60;;;36.90;19.30;;;;;;5082380;28;20121;-85
2022/05/13 09:37:39;;;;;;;4.85;0.93;;;37.10;19.30;;;;;;5072715;28;20745;-85
2022/05/13 09:40:14;;;;;;;2.17;0.55;;;37.30;19.80;;;;;;5072584;28;20024;-86
2022/05/13 09:42:42;;;;;;;2.33;0.60;;;37.60;19.60;;;;;;5072376;28;20021;-85
2022/05/13 09:45:17;;;;;;;4.15;0.73;;;37.00;19.90;;;;;;5072429;28;20020;-85
2022/05/13 09:48:02;;;;;;;4.13;0.75;;;36.60;20.00;;;;;;5072757;28;20017;-85
2022/05/13 09:50:36;;;;;;;3.50;0.90;;;35.90;20.50;;;;;;5072317;28;20028;-84
2022/05/13 09:53:22;;;;;;;4.13;0.88;;;36.00;19.80;;;;;;5072022;28;20086;-85
2022/05/13 09:55:53;;;;;;;4.80;0.80;;;36.20;19.80;;;;;;5061441;28;20134;-85
2022/05/13 09:58:23;;;;;;;4.85;0.80;;;34.70;22.40;;;;;;5072538;28;20501;-83
2022/05/13 10:00:53;;;;;;;4.85;0.82;;;32.90;22.90;;;;;;5091556;28;20493;-84
2022/05/13 10:03:25;;;;;;;3.15;0.65;;;32.70;23.90;;;;;;5116759;28;20110;-83
2022/05/13 10:06:04;;;;;;;4.07;0.88;;;31.20;25.90;;;;;;5116850;28;20490;-83
2022/05/13 10:08:31;;;;;;;3.42;0.70;;;30.00;27.10;;;;;;5075401;28;20032;-82
2022/05/13 10:14:00;;;;;;;3.42;0.63;;;28.50;28.60;;;;;;5075878;28;20079;-83
2022/05/13 10:16:47;;;;;;;3.35;0.65;;;28.80;27.30;;;;;;5075957;28;20433;-84
2022/05/13 10:19:17;;;;;;;3.53;0.82;;;30.30;25.70;;;;;;5075595;28;20048;-82
2022/05/13 10:21:58;;;;;;;1.95;0.50;;;31.30;25.10;;;;;;5075680;28;20020;-84
2022/05/13 10:24:33;;;;;;;2.22;0.50;;;31.80;23.40;;;;;;5075923;28;20024;-84
2022/05/13 10:27:01;;;;;;;1.73;0.70;;;32.20;23.30;;;;;;5075836;28;20024;-84
2022/05/13 10:29:40;;;;;;;4.13;0.60;;;32.20;23.40;;;;;;5076124;28;20028;-83
2022/05/13 10:32:10;;;;;;;;;;;31.80;24.30;;;;;;5096455;28;20483;-84
2022/05/13 10:34:40;;;;;;;2.05;0.60;;;31.10;26.00;;;;;;5094547;28;19908;-83
2022/05/13 10:37:28;;;;;;;5.57;0.90;;;30.60;25.70;;;;;;5075647;28;20052;-83
2022/05/13 10:40:13;;;;;;;1.95;0.47;;;29.90;25.70;;;;;;5079317;28;20077;-83
2022/05/13 10:42:48;;;;;;;2.13;0.40;;;29.60;27.60;;;;;;5095747;28;20027;-83
2022/05/13 10:45:17;;;;;;;4.85;0.70;;;29.40;29.10;;;;;;5094226;28;20112;-83
2022/05/13 10:47:47;;;;;;;1.73;0.60;;;28.90;28.30;;;;;;5095881;28;20217;-84
2022/05/13 10:50:22;;;;;;;5.97;0.80;;;28.30;28.80;;;;;;5084147;28;20127;-83
2022/05/13 10:52:55;;;;;;;1.45;0.43;;;28.10;29.60;;;;;;5075356;28;20024;-82
2022/05/13 10:55:32;;;;;;;3.97;0.70;;;27.80;29.00;;;;;;5075750;28;20382;-79
2022/05/13 10:58:23;;;;;;;2.40;0.60;;;27.30;29.50;;;;;;5081089;28;20043;-81
2022/05/13 11:01:21;;;;;;;1.75;0.55;;;27.10;29.80;;;;;;5097243;28;20096;-77
2022/05/13 11:03:53;;;;;;;4.55;0.75;;;26.80;30.80;;;;;;5087088;27;20064;-79
2022/05/13 11:06:35;;;;;;;4.43;0.65;;;26.30;32.60;;;;;;5084395;28;20107;-78
2022/05/13 11:09:19;;;;;;;2.58;0.60;;;26.50;32.10;;;;;;5088158;28;20059;-81
2022/05/13 11:11:45;;;;;;;4.15;0.55;;;26.80;31.00;;;;;;5084594;28;20028;-79
2022/05/13 11:14:39;;;;;;;3.15;0.60;;;26.80;31.20;;;;;;5095378;28;20028;-79
2022/05/13 11:17:25;;;;;;;2.40;0.38;;;26.50;32.30;;;;;;5094292;28;20047;-79
2022/05/13 11:20:28;;;;;;;2.85;0.75;;;26.40;33.90;;;;;;5094467;28;20099;-79
2022/05/13 11:23:06;;;;;;;3.22;0.63;;;26.20;32.40;;;;;;5095212;28;20020;-78
2022/05/13 11:25:54;;;;;;;1.30;0.70;;;26.00;32.80;;;;;;5077057;28;20115;-80
2022/05/13 11:28:46;;;;;;;1.45;0.52;;;26.40;32.60;;;;;;5074837;28;20466;-88
2022/05/13 11:31:32;;;;;;;1.17;0.40;;;25.70;32.60;;;;;;5079256;28;20021;-82
2022/05/13 11:34:07;;;;;;;3.20;0.93;;;25.80;32.80;;;;;;5072846;28;20033;-79
2022/05/13 11:36:36;;;;;;;3.50;0.65;;;25.50;33.70;;;;;;5079651;28;20028;-80
2022/05/13 11:39:16;;;;;;;1.77;0.50;;;25.50;33.90;;;;;;5080393;28;20035;-79
2022/05/13 11:41:53;;;;;;;3.63;1.00;;;25.60;34.70;;;;;;5081082;28;20128;-79
2022/05/13 11:44:24;;;;;;;2.28;0.60;;;25.60;33.90;;;;;;5081963;28;20028;-79
2022/05/13 11:47:07;;;;;;;1.92;0.50;;;25.80;35.00;;;;;;5082975;28;20055;-80
2022/05/13 11:49:40;;;;;;;1.77;0.65;;;25.70;33.10;;;;;;5078588;28;20036;-79
2022/05/13 11:52:14;;;;;;;8.38;1.10;;;25.50;34.30;;;;;;5084725;28;20087;-80
2022/05/13 11:54:48;;;;;;;3.35;0.60;;;25.30;35.00;;;;;;5087946;28;20020;-80
2022/05/13 11:57:30;;;;;;;2.22;0.70;;;25.30;34.10;;;;;;5094771;28;20032;-80
2022/05/13 12:00:20;;;;;;;7.18;1.33;;;25.20;34.50;;;;;;5085453;28;20028;-80
2022/05/13 12:02:54;;;;;;;1.73;0.65;;;25.00;35.10;;;;;;5081532;28;20032;-81
2022/05/13 12:05:20;;;;;;;6.82;0.95;;;25.20;35.00;;;;;;5082593;28;20578;-81
2022/05/13 12:08:07;;;;;;;3.10;0.52;;;25.50;35.00;;;;;;5083436;28;20428;-80
2022/05/13 12:10:42;;;;;;;4.13;0.70;;;25.60;34.20;;;;;;5083828;28;20040;-80
2022/05/13 12:13:26;;;;;;;2.90;0.60;;;25.70;34.10;;;;;;5082296;28;20025;-80
2022/05/13 12:16:24;;;;;;;1.98;0.60;;;25.90;33.10;;;;;;5083960;28;20079;-81
2022/05/13 12:19:20;;;;;;;1.48;0.63;;;25.90;32.80;;;;;;5086281;28;20024;-80
2022/05/13 12:22:02;;;;;;;1.50;0.77;;;25.90;33.20;;;;;;5083458;28;20103;-81
2022/05/13 12:25:09;;;;;;;2.53;0.77;;;25.90;33.10;;;;;;5083346;28;20123;-80
2022/05/13 12:27:45;;;;;;;4.40;0.80;;;25.50;32.70;;;;;;5094166;28;20020;-80
2022/05/13 12:30:29;;;;;;;1.75;0.60;;;25.80;35.00;;;;;;5079551;28;20031;-80
2022/05/13 12:32:57;;;;;;;4.18;0.60;;;26.00;34.30;;;;;;5084276;28;20771;-80
2022/05/13 12:38:23;;;;;;;3.05;0.80;;;26.10;32.20;;;;;;5081840;28;20466;-81
2022/05/13 12:40:56;;;;;;;3.25;0.85;;;26.00;33.60;;;;;;5086302;28;20052;-81
2022/05/13 12:43:43;;;;;;;1.35;0.70;;;26.20;33.80;;;;;;5084609;28;20016;-81
2022/05/13 12:46:19;;;;;;;4.20;0.85;;;26.30;33.80;;;;;;5084867;28;20039;-81
2022/05/13 12:49:14;;;;;;;2.92;0.65;;;26.30;33.10;;;;;;5082966;28;20024;-81
2022/05/13 12:51:52;;;;;;;1.40;0.63;;;26.40;32.90;;;;;;5069884;28;20043;-81
2022/05/13 12:54:23;;;;;;;3.03;0.73;;;26.50;33.10;;;;;;5073948;28;20028;-79
2022/05/13 12:56:59;;;;;;;3.75;0.95;;;26.30;36.00;;;;;;5086316;28;20248;-79
2022/05/13 12:59:31;;;;;;;3.90;1.02;;;26.00;33.10;;;;;;5084690;28;20102;-80
2022/05/13 13:02:23;;;;;;;2.72;0.73;;;25.80;32.10;;;;;;5095979;28;20020;-79
2022/05/13 13:05:08;;;;;;;1.75;0.40;;;25.80;33.90;;;;;;5101883;28;20021;-81
2022/05/13 13:07:37;;;;;;;3.53;0.52;;;25.60;34.40;;;;;;5084618;28;20047;-80
2022/05/13 13:10:03;;;;;;;3.03;0.70;;;25.70;33.20;;;;;;5083408;28;20517;-80
2022/05/13 13:12:42;;;;;;;2.00;0.60;;;25.30;33.10;;;;;;5080202;28;20079;-80
2022/05/13 13:15:07;;;;;;;4.25;0.93;;;25.60;33.90;;;;;;5081039;28;20033;-79
2022/05/13 13:17:47;;;;;;;3.22;0.60;;;25.80;33.80;;;;;;5079524;28;20027;-80
2022/05/13 13:20:17;;;;;;;4.82;0.77;;;25.90;33.60;;;;;;5081687;28;20063;-80
2022/05/13 13:22:47;;;;;;;4.03;0.50;;;25.80;32.90;;;;;;5081209;28;20059;-80
2022/05/13 13:25:18;;;;;;;2.95;0.70;;;25.90;33.00;;;;;;5081070;28;20077;-80
2022/05/13 13:27:44;;;;;;;2.75;0.90;;;25.80;33.60;;;;;;5080939;28;20051;-80